CheckWX is a tool to help pilots better visualize weather data.  It is not intended as a substitute for an official pre-flight weather briefing.

21:06:45 UTC

EHLW METAR
Leeuwarden Air Base Airport
Leeuwarden, The Netherlands
Current

12 mins ago

EHLW 232055Z AUTO 14006KT 9999 NCD 06/02 Q1037 BLU
Observed
Feb-23 @ 20:55 UTC
Wind
  • 140° at 6 KTS
Visibility
10,000+ meters
Flight Rules
VFR
Cloud Levels
  • Clear skies
Temperature
C / 43°F
Dewpoint
C / 36°F
Humidity
76%
Altimeter
30.62" Hg
Pressure
1036.91 hPa
Previous

42 mins ago

EHLW 232025Z AUTO 15005KT 9999 NCD 07/02 Q1037 BLU
Observed
Feb-23 @ 20:25 UTC
Wind
  • 150° at 5 KTS
Visibility
10,000+ meters
Flight Rules
VFR
Cloud Levels
  • Clear skies
Temperature
C / 45°F
Dewpoint
C / 36°F
Humidity
71%
Altimeter
30.62" Hg
Pressure
1036.91 hPa
Previous

1 hour ago

EHLW 231955Z AUTO 15006KT 9999 NCD 07/02 Q1036 BLU
Observed
Feb-23 @ 19:55 UTC
Wind
  • 150° at 6 KTS
Visibility
10,000+ meters
Flight Rules
VFR
Cloud Levels
  • Clear skies
Temperature
C / 45°F
Dewpoint
C / 36°F
Humidity
71%
Altimeter
30.59" Hg
Pressure
1035.91 hPa